sensor_id;sensor_type;location;lat;lon;timestamp;P1;durP1;ratioP1;P2;durP2;ratioP2
69203;SDS011;56317;27.658;85.326;2023-11-19T00:00:31;31.13;;;16.02;;
69203;SDS011;56317;27.658;85.326;2023-11-19T00:02:58;36.03;;;17.83;;
69203;SDS011;56317;27.658;85.326;2023-11-19T00:05:25;32.22;;;18.67;;
69203;SDS011;56317;27.658;85.326;2023-11-19T00:07:53;33.30;;;18.92;;
69203;SDS011;56317;27.658;85.326;2023-11-19T00:10:20;32.65;;;17.55;;
69203;SDS011;56317;27.658;85.326;2023-11-19T00:12:47;28.58;;;16.10;;
69203;SDS011;56317;27.658;85.326;2023-11-19T00:15:15;29.52;;;16.70;;
69203;SDS011;56317;27.658;85.326;2023-11-19T00:17:47;32.28;;;17.65;;
69203;SDS011;56317;27.658;85.326;2023-11-19T00:20:15;37.28;;;17.73;;
69203;SDS011;56317;27.658;85.326;2023-11-19T00:22:47;41.10;;;17.38;;
69203;SDS011;56317;27.658;85.326;2023-11-19T00:25:18;36.00;;;17.75;;
69203;SDS011;56317;27.658;85.326;2023-11-19T00:27:45;32.08;;;16.90;;
69203;SDS011;56317;27.658;85.326;2023-11-19T00:30:12;34.40;;;17.10;;
69203;SDS011;56317;27.658;85.326;2023-11-19T00:32:40;32.65;;;17.00;;
69203;SDS011;56317;27.658;85.326;2023-11-19T00:35:07;30.83;;;16.10;;
69203;SDS011;56317;27.658;85.326;2023-11-19T00:37:39;32.17;;;16.90;;
69203;SDS011;56317;27.658;85.326;2023-11-19T00:40:08;33.47;;;17.15;;
69203;SDS011;56317;27.658;85.326;2023-11-19T00:42:36;36.95;;;17.15;;
69203;SDS011;56317;27.658;85.326;2023-11-19T00:45:03;41.28;;;18.45;;
69203;SDS011;56317;27.658;85.326;2023-11-19T00:47:35;37.25;;;20.70;;
69203;SDS011;56317;27.658;85.326;2023-11-19T00:50:02;36.97;;;20.92;;
69203;SDS011;56317;27.658;85.326;2023-11-19T00:52:29;39.38;;;20.25;;
69203;SDS011;56317;27.658;85.326;2023-11-19T00:54:56;45.60;;;21.40;;
69203;SDS011;56317;27.658;85.326;2023-11-19T00:57:23;40.15;;;20.23;;
69203;SDS011;56317;27.658;85.326;2023-11-19T00:59:54;28.55;;;14.18;;
69203;SDS011;56317;27.658;85.326;2023-11-19T01:02:21;38.95;;;18.73;;
69203;SDS011;56317;27.658;85.326;2023-11-19T01:04:48;41.25;;;23.90;;
69203;SDS011;56317;27.658;85.326;2023-11-19T01:07:17;44.33;;;27.05;;
69203;SDS011;56317;27.658;85.326;2023-11-19T01:09:46;45.58;;;27.73;;
69203;SDS011;56317;27.658;85.326;2023-11-19T01:12:13;44.97;;;27.35;;
69203;SDS011;56317;27.658;85.326;2023-11-19T01:14:40;46.83;;;29.15;;
69203;SDS011;56317;27.658;85.326;2023-11-19T01:17:07;50.58;;;27.40;;
69203;SDS011;56317;27.658;85.326;2023-11-19T01:19:34;43.50;;;23.20;;
69203;SDS011;56317;27.658;85.326;2023-11-19T01:22:01;38.15;;;20.90;;
69203;SDS011;56317;27.658;85.326;2023-11-19T01:24:28;44.42;;;22.38;;
69203;SDS011;56317;27.658;85.326;2023-11-19T01:26:59;43.53;;;22.52;;
69203;SDS011;56317;27.658;85.326;2023-11-19T01:29:26;46.15;;;21.90;;
69203;SDS011;56317;27.658;85.326;2023-11-19T01:31:53;40.00;;;21.30;;
69203;SDS011;56317;27.658;85.326;2023-11-19T01:34:20;33.83;;;19.60;;
69203;SDS011;56317;27.658;85.326;2023-11-19T01:36:48;33.78;;;19.10;;
69203;SDS011;56317;27.658;85.326;2023-11-19T01:39:15;35.42;;;18.77;;
69203;SDS011;56317;27.658;85.326;2023-11-19T01:41:42;33.10;;;19.02;;
69203;SDS011;56317;27.658;85.326;2023-11-19T01:44:11;34.85;;;17.60;;
69203;SDS011;56317;27.658;85.326;2023-11-19T01:46:40;41.85;;;20.45;;
69203;SDS011;56317;27.658;85.326;2023-11-19T01:49:09;35.70;;;19.00;;
69203;SDS011;56317;27.658;85.326;2023-11-19T01:51:39;38.88;;;20.92;;
69203;SDS011;56317;27.658;85.326;2023-11-19T01:54:10;35.72;;;20.67;;
69203;SDS011;56317;27.658;85.326;2023-11-19T01:56:39;46.63;;;21.10;;
69203;SDS011;56317;27.658;85.326;2023-11-19T01:59:07;37.10;;;21.60;;
69203;SDS011;56317;27.658;85.326;2023-11-19T02:01:37;35.38;;;21.13;;
69203;SDS011;56317;27.658;85.326;2023-11-19T02:04:11;39.95;;;22.35;;
69203;SDS011;56317;27.658;85.326;2023-11-19T02:06:40;42.53;;;22.60;;
69203;SDS011;56317;27.658;85.326;2023-11-19T02:09:14;45.10;;;23.42;;
69203;SDS011;56317;27.658;85.326;2023-11-19T02:14:17;39.15;;;23.13;;
69203;SDS011;56317;27.658;85.326;2023-11-19T02:16:46;40.63;;;24.10;;
69203;SDS011;56317;27.658;85.326;2023-11-19T02:19:13;34.75;;;21.25;;
69203;SDS011;56317;27.658;85.326;2023-11-19T02:21:40;35.13;;;20.10;;
69203;SDS011;56317;27.658;85.326;2023-11-19T02:24:08;39.10;;;17.60;;
69203;SDS011;56317;27.658;85.326;2023-11-19T02:26:42;26.17;;;15.15;;
69203;SDS011;56317;27.658;85.326;2023-11-19T02:29:21;31.23;;;16.30;;
69203;SDS011;56317;27.658;85.326;2023-11-19T02:31:48;29.35;;;17.63;;
69203;SDS011;56317;27.658;85.326;2023-11-19T02:34:15;25.50;;;15.35;;
69203;SDS011;56317;27.658;85.326;2023-11-19T02:36:43;25.60;;;14.00;;
69203;SDS011;56317;27.658;85.326;2023-11-19T02:39:15;30.52;;;15.80;;
69203;SDS011;56317;27.658;85.326;2023-11-19T02:41:47;33.33;;;16.27;;
69203;SDS011;56317;27.658;85.326;2023-11-19T02:44:20;29.42;;;16.35;;
69203;SDS011;56317;27.658;85.326;2023-11-19T02:46:47;29.25;;;16.75;;
69203;SDS011;56317;27.658;85.326;2023-11-19T02:49:20;37.75;;;17.05;;
69203;SDS011;56317;27.658;85.326;2023-11-19T02:51:47;32.17;;;17.90;;
69203;SDS011;56317;27.658;85.326;2023-11-19T02:56:48;35.20;;;17.20;;
69203;SDS011;56317;27.658;85.326;2023-11-19T02:59:21;32.80;;;18.25;;
69203;SDS011;56317;27.658;85.326;2023-11-19T03:01:53;32.00;;;17.98;;
69203;SDS011;56317;27.658;85.326;2023-11-19T03:04:20;34.15;;;20.50;;
69203;SDS011;56317;27.658;85.326;2023-11-19T03:06:51;26.53;;;14.50;;
69203;SDS011;56317;27.658;85.326;2023-11-19T03:09:18;32.05;;;18.67;;
69203;SDS011;56317;27.658;85.326;2023-11-19T03:11:45;35.63;;;18.33;;
69203;SDS011;56317;27.658;85.326;2023-11-19T03:14:13;36.92;;;19.33;;
69203;SDS011;56317;27.658;85.326;2023-11-19T03:16:40;36.58;;;19.13;;
69203;SDS011;56317;27.658;85.326;2023-11-19T03:19:14;33.88;;;20.45;;
69203;SDS011;56317;27.658;85.326;2023-11-19T03:21:42;34.53;;;18.05;;
69203;SDS011;56317;27.658;85.326;2023-11-19T03:24:10;44.42;;;22.73;;
69203;SDS011;56317;27.658;85.326;2023-11-19T03:26:41;26.67;;;13.90;;
69203;SDS011;56317;27.658;85.326;2023-11-19T03:29:10;33.55;;;18.08;;
69203;SDS011;56317;27.658;85.326;2023-11-19T03:31:41;41.97;;;21.75;;
69203;SDS011;56317;27.658;85.326;2023-11-19T03:34:08;38.03;;;20.75;;
69203;SDS011;56317;27.658;85.326;2023-11-19T03:36:35;42.05;;;21.25;;
69203;SDS011;56317;27.658;85.326;2023-11-19T03:39:03;35.15;;;19.50;;
69203;SDS011;56317;27.658;85.326;2023-11-19T03:41:31;36.13;;;18.30;;
69203;SDS011;56317;27.658;85.326;2023-11-19T03:44:03;29.70;;;16.65;;
69203;SDS011;56317;27.658;85.326;2023-11-19T03:46:31;34.25;;;19.25;;
69203;SDS011;56317;27.658;85.326;2023-11-19T03:48:59;34.35;;;18.58;;
69203;SDS011;56317;27.658;85.326;2023-11-19T03:51:27;33.72;;;18.20;;
69203;SDS011;56317;27.658;85.326;2023-11-19T03:53:55;34.40;;;17.35;;
69203;SDS011;56317;27.658;85.326;2023-11-19T03:56:22;34.70;;;18.83;;
69203;SDS011;56317;27.658;85.326;2023-11-19T03:58:49;35.53;;;20.58;;
69203;SDS011;56317;27.658;85.326;2023-11-19T04:01:17;32.92;;;17.75;;
69203;SDS011;56317;27.658;85.326;2023-11-19T04:03:47;33.75;;;18.42;;
69203;SDS011;56317;27.658;85.326;2023-11-19T04:06:17;34.97;;;20.35;;
69203;SDS011;56317;27.658;85.326;2023-11-19T04:08:44;33.60;;;20.27;;
69203;SDS011;56317;27.658;85.326;2023-11-19T04:11:11;33.05;;;19.88;;
69203;SDS011;56317;27.658;85.326;2023-11-19T04:13:38;30.17;;;18.75;;
69203;SDS011;56317;27.658;85.326;2023-11-19T04:16:05;34.20;;;19.00;;
69203;SDS011;56317;27.658;85.326;2023-11-19T04:18:33;33.80;;;19.48;;
69203;SDS011;56317;27.658;85.326;2023-11-19T04:21:00;32.90;;;19.52;;
69203;SDS011;56317;27.658;85.326;2023-11-19T04:23:28;31.83;;;19.30;;
69203;SDS011;56317;27.658;85.326;2023-11-19T04:25:55;39.40;;;21.40;;
69203;SDS011;56317;27.658;85.326;2023-11-19T04:28:23;31.65;;;18.27;;
69203;SDS011;56317;27.658;85.326;2023-11-19T04:30:52;29.42;;;17.20;;
69203;SDS011;56317;27.658;85.326;2023-11-19T04:33:19;31.10;;;18.70;;
69203;SDS011;56317;27.658;85.326;2023-11-19T04:35:46;32.50;;;17.38;;
69203;SDS011;56317;27.658;85.326;2023-11-19T04:38:14;31.00;;;17.63;;
69203;SDS011;56317;27.658;85.326;2023-11-19T04:40:45;30.92;;;17.00;;
69203;SDS011;56317;27.658;85.326;2023-11-19T04:43:12;45.78;;;18.50;;
69203;SDS011;56317;27.658;85.326;2023-11-19T04:45:41;29.17;;;16.05;;
69203;SDS011;56317;27.658;85.326;2023-11-19T04:48:09;27.60;;;14.98;;
69203;SDS011;56317;27.658;85.326;2023-11-19T04:50:38;32.25;;;15.90;;
69203;SDS011;56317;27.658;85.326;2023-11-19T04:53:06;33.95;;;17.88;;
69203;SDS011;56317;27.658;85.326;2023-11-19T04:55:34;38.33;;;18.88;;
69203;SDS011;56317;27.658;85.326;2023-11-19T04:58:03;30.95;;;17.40;;
69203;SDS011;56317;27.658;85.326;2023-11-19T05:00:30;28.80;;;17.10;;
69203;SDS011;56317;27.658;85.326;2023-11-19T05:03:00;33.08;;;16.70;;
69203;SDS011;56317;27.658;85.326;2023-11-19T05:05:30;29.17;;;17.45;;
69203;SDS011;56317;27.658;85.326;2023-11-19T05:07:57;33.55;;;18.30;;
69203;SDS011;56317;27.658;85.326;2023-11-19T05:10:25;31.75;;;17.70;;
69203;SDS011;56317;27.658;85.326;2023-11-19T05:12:55;29.75;;;17.20;;
69203;SDS011;56317;27.658;85.326;2023-11-19T05:15:23;30.50;;;17.50;;
69203;SDS011;56317;27.658;85.326;2023-11-19T05:17:50;34.58;;;19.38;;
69203;SDS011;56317;27.658;85.326;2023-11-19T05:20:17;35.47;;;17.15;;
69203;SDS011;56317;27.658;85.326;2023-11-19T05:22:44;28.20;;;16.52;;
69203;SDS011;56317;27.658;85.326;2023-11-19T05:25:11;26.88;;;14.90;;
69203;SDS011;56317;27.658;85.326;2023-11-19T05:27:38;32.55;;;15.63;;
69203;SDS011;56317;27.658;85.326;2023-11-19T05:30:06;27.50;;;14.35;;
69203;SDS011;56317;27.658;85.326;2023-11-19T05:32:34;25.00;;;15.25;;
69203;SDS011;56317;27.658;85.326;2023-11-19T05:35:01;23.15;;;13.68;;
69203;SDS011;56317;27.658;85.326;2023-11-19T05:37:29;25.85;;;12.02;;
69203;SDS011;56317;27.658;85.326;2023-11-19T05:40:00;20.02;;;12.90;;
69203;SDS011;56317;27.658;85.326;2023-11-19T05:42:29;25.00;;;12.38;;
69203;SDS011;56317;27.658;85.326;2023-11-19T05:44:56;22.05;;;11.15;;
69203;SDS011;56317;27.658;85.326;2023-11-19T05:47:23;11.98;;;7.05;;
69203;SDS011;56317;27.658;85.326;2023-11-19T05:49:52;18.55;;;7.20;;
69203;SDS011;56317;27.658;85.326;2023-11-19T05:52:26;14.27;;;7.22;;
69203;SDS011;56317;27.658;85.326;2023-11-19T05:55:01;15.63;;;9.45;;
69203;SDS011;56317;27.658;85.326;2023-11-19T05:57:35;18.58;;;9.57;;
69203;SDS011;56317;27.658;85.326;2023-11-19T06:00:03;17.75;;;9.48;;
69203;SDS011;56317;27.658;85.326;2023-11-19T06:02:36;15.57;;;9.52;;
69203;SDS011;56317;27.658;85.326;2023-11-19T06:05:06;17.58;;;10.15;;
69203;SDS011;56317;27.658;85.326;2023-11-19T06:07:33;16.92;;;9.07;;
69203;SDS011;56317;27.658;85.326;2023-11-19T06:10:02;18.02;;;9.15;;
69203;SDS011;56317;27.658;85.326;2023-11-19T06:15:04;13.15;;;7.80;;
69203;SDS011;56317;27.658;85.326;2023-11-19T06:17:35;17.17;;;9.38;;
69203;SDS011;56317;27.658;85.326;2023-11-19T06:20:03;18.95;;;9.13;;
69203;SDS011;56317;27.658;85.326;2023-11-19T06:22:32;18.20;;;9.63;;
69203;SDS011;56317;27.658;85.326;2023-11-19T06:24:59;14.15;;;9.07;;
69203;SDS011;56317;27.658;85.326;2023-11-19T06:27:26;23.20;;;10.55;;
69203;SDS011;56317;27.658;85.326;2023-11-19T06:29:54;18.70;;;9.80;;
69203;SDS011;56317;27.658;85.326;2023-11-19T06:32:21;16.33;;;9.38;;
69203;SDS011;56317;27.658;85.326;2023-11-19T06:34:50;20.42;;;11.35;;
69203;SDS011;56317;27.658;85.326;2023-11-19T06:37:17;19.33;;;10.23;;
69203;SDS011;56317;27.658;85.326;2023-11-19T06:39:44;21.13;;;10.32;;
69203;SDS011;56317;27.658;85.326;2023-11-19T06:42:12;15.60;;;8.43;;
69203;SDS011;56317;27.658;85.326;2023-11-19T06:44:40;17.38;;;9.48;;
69203;SDS011;56317;27.658;85.326;2023-11-19T06:47:08;19.45;;;10.88;;
69203;SDS011;56317;27.658;85.326;2023-11-19T06:49:35;20.50;;;9.77;;
69203;SDS011;56317;27.658;85.326;2023-11-19T06:52:02;20.90;;;10.10;;
69203;SDS011;56317;27.658;85.326;2023-11-19T06:54:30;18.17;;;9.32;;
69203;SDS011;56317;27.658;85.326;2023-11-19T06:56:57;15.70;;;8.68;;
69203;SDS011;56317;27.658;85.326;2023-11-19T06:59:24;18.27;;;10.32;;
69203;SDS011;56317;27.658;85.326;2023-11-19T07:01:55;21.00;;;9.55;;
69203;SDS011;56317;27.658;85.326;2023-11-19T07:04:25;20.17;;;9.88;;
69203;SDS011;56317;27.658;85.326;2023-11-19T07:06:58;14.35;;;7.65;;
69203;SDS011;56317;27.658;85.326;2023-11-19T07:09:26;13.65;;;8.13;;
69203;SDS011;56317;27.658;85.326;2023-11-19T07:11:53;14.05;;;8.10;;
69203;SDS011;56317;27.658;85.326;2023-11-19T07:14:20;17.13;;;8.90;;
69203;SDS011;56317;27.658;85.326;2023-11-19T07:16:49;12.00;;;6.78;;
69203;SDS011;56317;27.658;85.326;2023-11-19T07:19:16;11.75;;;7.25;;
69203;SDS011;56317;27.658;85.326;2023-11-19T07:21:44;14.18;;;8.18;;
69203;SDS011;56317;27.658;85.326;2023-11-19T07:24:11;14.70;;;6.90;;
69203;SDS011;56317;27.658;85.326;2023-11-19T07:26:46;15.80;;;7.28;;
69203;SDS011;56317;27.658;85.326;2023-11-19T07:29:14;13.13;;;7.05;;
69203;SDS011;56317;27.658;85.326;2023-11-19T07:32:01;12.32;;;6.63;;
69203;SDS011;56317;27.658;85.326;2023-11-19T07:34:28;15.82;;;6.78;;
69203;SDS011;56317;27.658;85.326;2023-11-19T07:36:58;12.13;;;6.60;;
69203;SDS011;56317;27.658;85.326;2023-11-19T07:39:28;11.50;;;6.25;;
69203;SDS011;56317;27.658;85.326;2023-11-19T07:41:56;13.88;;;6.10;;
69203;SDS011;56317;27.658;85.326;2023-11-19T07:44:23;11.77;;;6.57;;
69203;SDS011;56317;27.658;85.326;2023-11-19T07:46:50;11.20;;;6.43;;
69203;SDS011;56317;27.658;85.326;2023-11-19T07:49:17;10.98;;;6.65;;
69203;SDS011;56317;27.658;85.326;2023-11-19T07:51:45;15.90;;;6.97;;
69203;SDS011;56317;27.658;85.326;2023-11-19T07:54:13;12.27;;;6.30;;
69203;SDS011;56317;27.658;85.326;2023-11-19T07:56:40;13.80;;;6.78;;
69203;SDS011;56317;27.658;85.326;2023-11-19T07:59:11;14.95;;;7.43;;
69203;SDS011;56317;27.658;85.326;2023-11-19T08:01:39;16.25;;;7.70;;
69203;SDS011;56317;27.658;85.326;2023-11-19T08:04:06;12.93;;;6.43;;
69203;SDS011;56317;27.658;85.326;2023-11-19T08:06:33;12.48;;;7.15;;
69203;SDS011;56317;27.658;85.326;2023-11-19T08:09:00;12.15;;;6.35;;
69203;SDS011;56317;27.658;85.326;2023-11-19T08:11:27;14.27;;;7.47;;
69203;SDS011;56317;27.658;85.326;2023-11-19T08:13:54;21.83;;;8.88;;
69203;SDS011;56317;27.658;85.326;2023-11-19T08:16:22;11.13;;;6.20;;
69203;SDS011;56317;27.658;85.326;2023-11-19T08:18:49;13.45;;;6.43;;
69203;SDS011;56317;27.658;85.326;2023-11-19T08:21:16;12.95;;;6.68;;
69203;SDS011;56317;27.658;85.326;2023-11-19T08:23:46;14.25;;;7.38;;
69203;SDS011;56317;27.658;85.326;2023-11-19T08:26:14;12.05;;;6.78;;
69203;SDS011;56317;27.658;85.326;2023-11-19T08:28:41;12.80;;;6.80;;
69203;SDS011;56317;27.658;85.326;2023-11-19T08:31:08;16.13;;;7.28;;
69203;SDS011;56317;27.658;85.326;2023-11-19T08:33:35;11.90;;;6.55;;
69203;SDS011;56317;27.658;85.326;2023-11-19T08:36:03;11.55;;;6.57;;
69203;SDS011;56317;27.658;85.326;2023-11-19T08:38:30;15.85;;;6.50;;
69203;SDS011;56317;27.658;85.326;2023-11-19T08:40:57;10.60;;;6.13;;
69203;SDS011;56317;27.658;85.326;2023-11-19T08:43:27;15.93;;;7.13;;
69203;SDS011;56317;27.658;85.326;2023-11-19T08:45:58;15.23;;;6.50;;
69203;SDS011;56317;27.658;85.326;2023-11-19T08:48:26;14.30;;;7.72;;
69203;SDS011;56317;27.658;85.326;2023-11-19T08:50:53;13.85;;;7.28;;
69203;SDS011;56317;27.658;85.326;2023-11-19T08:53:20;13.65;;;7.72;;
69203;SDS011;56317;27.658;85.326;2023-11-19T08:56:08;20.83;;;7.15;;
69203;SDS011;56317;27.658;85.326;2023-11-19T08:58:35;12.93;;;7.10;;
69203;SDS011;56317;27.658;85.326;2023-11-19T09:01:03;13.80;;;7.72;;
69203;SDS011;56317;27.658;85.326;2023-11-19T09:03:31;11.15;;;6.53;;
69203;SDS011;56317;27.658;85.326;2023-11-19T09:06:00;10.40;;;6.47;;
69203;SDS011;56317;27.658;85.326;2023-11-19T09:08:27;12.75;;;6.60;;
69203;SDS011;56317;27.658;85.326;2023-11-19T09:10:54;12.02;;;6.53;;
69203;SDS011;56317;27.658;85.326;2023-11-19T09:13:21;11.15;;;6.60;;
69203;SDS011;56317;27.658;85.326;2023-11-19T09:15:48;14.20;;;6.78;;
69203;SDS011;56317;27.658;85.326;2023-11-19T09:18:16;22.70;;;9.80;;
69203;SDS011;56317;27.658;85.326;2023-11-19T09:20:44;18.30;;;7.68;;
69203;SDS011;56317;27.658;85.326;2023-11-19T09:23:11;18.45;;;8.13;;
69203;SDS011;56317;27.658;85.326;2023-11-19T09:25:38;18.42;;;7.13;;
69203;SDS011;56317;27.658;85.326;2023-11-19T09:28:08;12.95;;;6.70;;
69203;SDS011;56317;27.658;85.326;2023-11-19T09:30:36;17.45;;;7.38;;
69203;SDS011;56317;27.658;85.326;2023-11-19T09:33:03;14.10;;;6.75;;
69203;SDS011;56317;27.658;85.326;2023-11-19T09:35:32;15.85;;;7.38;;
69203;SDS011;56317;27.658;85.326;2023-11-19T09:37:59;16.05;;;7.80;;
69203;SDS011;56317;27.658;85.326;2023-11-19T09:40:26;17.23;;;7.50;;
69203;SDS011;56317;27.658;85.326;2023-11-19T09:42:55;15.38;;;7.30;;
69203;SDS011;56317;27.658;85.326;2023-11-19T09:45:22;18.35;;;6.78;;
69203;SDS011;56317;27.658;85.326;2023-11-19T09:47:54;11.50;;;6.38;;
69203;SDS011;56317;27.658;85.326;2023-11-19T09:50:23;21.20;;;7.22;;
69203;SDS011;56317;27.658;85.326;2023-11-19T09:52:50;14.75;;;6.22;;
69203;SDS011;56317;27.658;85.326;2023-11-19T09:55:17;18.95;;;7.93;;
69203;SDS011;56317;27.658;85.326;2023-11-19T09:57:44;17.95;;;7.93;;
69203;SDS011;56317;27.658;85.326;2023-11-19T10:00:13;19.45;;;8.25;;
69203;SDS011;56317;27.658;85.326;2023-11-19T10:02:45;16.67;;;7.65;;
69203;SDS011;56317;27.658;85.326;2023-11-19T10:05:14;15.10;;;7.97;;
69203;SDS011;56317;27.658;85.326;2023-11-19T10:07:41;23.63;;;7.97;;
69203;SDS011;56317;27.658;85.326;2023-11-19T10:10:15;25.75;;;8.27;;
69203;SDS011;56317;27.658;85.326;2023-11-19T10:12:50;19.77;;;8.05;;
69203;SDS011;56317;27.658;85.326;2023-11-19T10:15:20;17.25;;;8.55;;
69203;SDS011;56317;27.658;85.326;2023-11-19T10:17:49;25.08;;;9.63;;
69203;SDS011;56317;27.658;85.326;2023-11-19T10:20:17;24.05;;;9.38;;
69203;SDS011;56317;27.658;85.326;2023-11-19T10:22:44;25.75;;;9.90;;
69203;SDS011;56317;27.658;85.326;2023-11-19T10:25:23;27.00;;;12.00;;
69203;SDS011;56317;27.658;85.326;2023-11-19T10:27:52;22.90;;;9.75;;
69203;SDS011;56317;27.658;85.326;2023-11-19T10:30:23;22.27;;;10.73;;
69203;SDS011;56317;27.658;85.326;2023-11-19T10:33:04;24.13;;;12.10;;
69203;SDS011;56317;27.658;85.326;2023-11-19T10:35:37;26.80;;;10.40;;
69203;SDS011;56317;27.658;85.326;2023-11-19T10:38:25;19.25;;;10.02;;
69203;SDS011;56317;27.658;85.326;2023-11-19T10:40:53;27.08;;;9.82;;
69203;SDS011;56317;27.658;85.326;2023-11-19T10:43:20;18.17;;;9.18;;
69203;SDS011;56317;27.658;85.326;2023-11-19T10:45:51;21.02;;;8.70;;
69203;SDS011;56317;27.658;85.326;2023-11-19T10:48:18;24.08;;;10.05;;
69203;SDS011;56317;27.658;85.326;2023-11-19T10:50:49;26.60;;;9.13;;
69203;SDS011;56317;27.658;85.326;2023-11-19T10:53:20;19.02;;;8.88;;
69203;SDS011;56317;27.658;85.326;2023-11-19T10:55:51;22.40;;;9.07;;
69203;SDS011;56317;27.658;85.326;2023-11-19T10:58:23;23.55;;;9.07;;
69203;SDS011;56317;27.658;85.326;2023-11-19T11:00:54;19.17;;;8.77;;
69203;SDS011;56317;27.658;85.326;2023-11-19T11:03:36;20.00;;;8.70;;
69203;SDS011;56317;27.658;85.326;2023-11-19T11:06:08;19.88;;;9.02;;
69203;SDS011;56317;27.658;85.326;2023-11-19T11:08:39;23.50;;;9.93;;
69203;SDS011;56317;27.658;85.326;2023-11-19T11:11:07;16.17;;;8.38;;
69203;SDS011;56317;27.658;85.326;2023-11-19T11:13:37;22.27;;;9.90;;
69203;SDS011;56317;27.658;85.326;2023-11-19T11:16:08;21.23;;;9.73;;
69203;SDS011;56317;27.658;85.326;2023-11-19T11:18:36;24.38;;;9.60;;
69203;SDS011;56317;27.658;85.326;2023-11-19T11:21:10;28.25;;;9.57;;
69203;SDS011;56317;27.658;85.326;2023-11-19T11:23:47;24.85;;;10.20;;
69203;SDS011;56317;27.658;85.326;2023-11-19T11:26:43;23.38;;;10.57;;
69203;SDS011;56317;27.658;85.326;2023-11-19T11:38:10;19.80;;;10.63;;
69203;SDS011;56317;27.658;85.326;2023-11-19T11:40:38;29.10;;;14.63;;
69203;SDS011;56317;27.658;85.326;2023-11-19T11:43:30;32.67;;;13.90;;
69203;SDS011;56317;27.658;85.326;2023-11-19T11:49:05;26.13;;;14.20;;
69203;SDS011;56317;27.658;85.326;2023-11-19T12:02:13;28.63;;;14.13;;
69203;SDS011;56317;27.658;85.326;2023-11-19T12:04:42;25.85;;;13.93;;
69203;SDS011;56317;27.658;85.326;2023-11-19T12:07:22;29.10;;;13.73;;
69203;SDS011;56317;27.658;85.326;2023-11-19T12:09:52;37.75;;;14.70;;
69203;SDS011;56317;27.658;85.326;2023-11-19T12:12:33;29.67;;;14.07;;
69203;SDS011;56317;27.658;85.326;2023-11-19T12:15:02;30.58;;;14.20;;
69203;SDS011;56317;27.658;85.326;2023-11-19T12:17:42;29.05;;;14.27;;
69203;SDS011;56317;27.658;85.326;2023-11-19T12:20:16;26.88;;;13.30;;
69203;SDS011;56317;27.658;85.326;2023-11-19T12:22:46;36.03;;;14.07;;
69203;SDS011;56317;27.658;85.326;2023-11-19T12:25:19;24.35;;;13.20;;
69203;SDS011;56317;27.658;85.326;2023-11-19T12:27:47;28.98;;;12.95;;
69203;SDS011;56317;27.658;85.326;2023-11-19T12:30:25;29.17;;;13.20;;
69203;SDS011;56317;27.658;85.326;2023-11-19T12:32:54;25.75;;;13.40;;
69203;SDS011;56317;27.658;85.326;2023-11-19T12:35:22;35.25;;;13.82;;
69203;SDS011;56317;27.658;85.326;2023-11-19T12:37:50;33.13;;;15.57;;
69203;SDS011;56317;27.658;85.326;2023-11-19T12:42:54;34.60;;;17.52;;
69203;SDS011;56317;27.658;85.326;2023-11-19T12:45:23;36.80;;;16.60;;
69203;SDS011;56317;27.658;85.326;2023-11-19T12:48:03;36.03;;;17.35;;
69203;SDS011;56317;27.658;85.326;2023-11-19T12:50:53;33.70;;;15.57;;
69203;SDS011;56317;27.658;85.326;2023-11-19T12:53:23;37.97;;;16.30;;
69203;SDS011;56317;27.658;85.326;2023-11-19T12:55:52;40.75;;;18.40;;
69203;SDS011;56317;27.658;85.326;2023-11-19T12:58:34;39.92;;;19.33;;
69203;SDS011;56317;27.658;85.326;2023-11-19T13:01:07;41.97;;;21.02;;
69203;SDS011;56317;27.658;85.326;2023-11-19T13:03:35;45.10;;;21.80;;
69203;SDS011;56317;27.658;85.326;2023-11-19T13:06:23;43.60;;;21.90;;
69203;SDS011;56317;27.658;85.326;2023-11-19T13:08:50;42.67;;;22.73;;
69203;SDS011;56317;27.658;85.326;2023-11-19T13:11:32;44.80;;;21.48;;
69203;SDS011;56317;27.658;85.326;2023-11-19T13:14:02;52.25;;;23.42;;
69203;SDS011;56317;27.658;85.326;2023-11-19T13:16:30;47.85;;;23.17;;
69203;SDS011;56317;27.658;85.326;2023-11-19T13:18:58;44.63;;;22.52;;
69203;SDS011;56317;27.658;85.326;2023-11-19T13:21:28;50.80;;;24.15;;
69203;SDS011;56317;27.658;85.326;2023-11-19T13:23:55;57.47;;;26.85;;
69203;SDS011;56317;27.658;85.326;2023-11-19T13:26:23;53.42;;;25.60;;
69203;SDS011;56317;27.658;85.326;2023-11-19T13:28:50;57.95;;;28.38;;
69203;SDS011;56317;27.658;85.326;2023-11-19T13:31:17;69.85;;;31.08;;
69203;SDS011;56317;27.658;85.326;2023-11-19T13:33:44;60.53;;;29.40;;
69203;SDS011;56317;27.658;85.326;2023-11-19T13:36:11;54.05;;;27.75;;
69203;SDS011;56317;27.658;85.326;2023-11-19T13:38:38;56.92;;;28.40;;
69203;SDS011;56317;27.658;85.326;2023-11-19T13:41:10;67.88;;;29.52;;
69203;SDS011;56317;27.658;85.326;2023-11-19T13:43:39;70.80;;;32.45;;
69203;SDS011;56317;27.658;85.326;2023-11-19T13:46:06;58.50;;;27.27;;
69203;SDS011;56317;27.658;85.326;2023-11-19T13:48:35;48.05;;;28.27;;
69203;SDS011;56317;27.658;85.326;2023-11-19T13:51:02;59.63;;;28.10;;
69203;SDS011;56317;27.658;85.326;2023-11-19T13:53:29;52.05;;;26.02;;
69203;SDS011;56317;27.658;85.326;2023-11-19T13:55:56;43.72;;;24.08;;
69203;SDS011;56317;27.658;85.326;2023-11-19T13:58:23;42.53;;;22.92;;
69203;SDS011;56317;27.658;85.326;2023-11-19T14:00:53;49.22;;;21.90;;
69203;SDS011;56317;27.658;85.326;2023-11-19T14:03:21;43.42;;;22.80;;
69203;SDS011;56317;27.658;85.326;2023-11-19T14:05:48;43.88;;;22.05;;
69203;SDS011;56317;27.658;85.326;2023-11-19T14:08:17;43.08;;;23.17;;
69203;SDS011;56317;27.658;85.326;2023-11-19T14:10:46;38.63;;;20.30;;
69203;SDS011;56317;27.658;85.326;2023-11-19T14:13:13;40.42;;;20.42;;
69203;SDS011;56317;27.658;85.326;2023-11-19T14:15:40;42.65;;;21.08;;
69203;SDS011;56317;27.658;85.326;2023-11-19T14:18:08;36.38;;;20.33;;
69203;SDS011;56317;27.658;85.326;2023-11-19T14:20:35;45.38;;;20.02;;
69203;SDS011;56317;27.658;85.326;2023-11-19T14:23:04;45.15;;;20.25;;
69203;SDS011;56317;27.658;85.326;2023-11-19T14:25:31;41.75;;;21.55;;
69203;SDS011;56317;27.658;85.326;2023-11-19T14:27:59;40.65;;;20.55;;
69203;SDS011;56317;27.658;85.326;2023-11-19T14:32:56;34.97;;;14.80;;
69203;SDS011;56317;27.658;85.326;2023-11-19T14:35:23;28.88;;;15.30;;
69203;SDS011;56317;27.658;85.326;2023-11-19T14:37:50;33.65;;;15.73;;
69203;SDS011;56317;27.658;85.326;2023-11-19T14:40:18;34.55;;;14.85;;
69203;SDS011;56317;27.658;85.326;2023-11-19T14:42:46;31.55;;;15.30;;
69203;SDS011;56317;27.658;85.326;2023-11-19T14:45:14;30.25;;;16.40;;
69203;SDS011;56317;27.658;85.326;2023-11-19T14:47:43;33.53;;;15.88;;
69203;SDS011;56317;27.658;85.326;2023-11-19T14:50:13;32.58;;;17.02;;
69203;SDS011;56317;27.658;85.326;2023-11-19T14:52:40;49.05;;;20.80;;
69203;SDS011;56317;27.658;85.326;2023-11-19T14:55:08;52.17;;;24.25;;
69203;SDS011;56317;27.658;85.326;2023-11-19T14:57:39;51.15;;;26.10;;
69203;SDS011;56317;27.658;85.326;2023-11-19T15:00:07;52.30;;;27.25;;